Time;durP1;ratioP1;P1;durP2;ratioP2;P2;SDS_P1;SDS_P2;PMS_P1;PMS_P2;Temp;Humidity;BMP_temperature;BMP_pressure;BME280_temperature;BME280_humidity;BME280_pressure;Samples;Min_cycle;Max_cycle;Signal;HPM_P1;HPM_P2
2023/07/05 01:46:20;;;;;;;1999.90;999.90;;;;;;;;;;6099168;22;21292;-76
2023/07/05 01:49:25;;;;;;;1999.90;999.90;;;;;;;;;;5001722;28;20679;-76
2023/07/05 01:52:12;;;;;;;1999.90;999.90;;;;;;;;;;5009273;28;20278;-76
2023/07/05 01:55:02;;;;;;;1999.90;999.90;;;;;;;;;;5010344;28;20202;-75
2023/07/05 01:57:49;;;;;;;1999.90;999.90;;;;;;;;;;5002762;28;20298;-74
2023/07/05 02:00:36;;;;;;;1999.90;999.90;;;;;;;;;;4997418;28;20918;-75
2023/07/05 02:03:23;;;;;;;1999.90;999.90;;;;;;;;;;5002861;28;20231;-75
2023/07/05 02:06:11;;;;;;;1999.90;999.90;;;;;;;;;;4994564;28;20594;-76
2023/07/05 02:08:56;;;;;;;1999.90;999.90;;;;;;;;;;5010608;28;20211;-76
2023/07/05 02:11:41;;;;;;;1999.90;999.90;;;;;;;;;;4996278;28;20707;-76
2023/07/05 02:14:26;;;;;;;1999.90;999.90;;;;;;;;;;4994151;28;20274;-76
2023/07/05 02:17:11;;;;;;;1999.90;999.90;;;;;;;;;;4992475;28;20443;-76
2023/07/05 02:19:56;;;;;;;1999.90;999.90;;;;;;;;;;4994259;28;20298;-76
2023/07/05 02:22:42;;;;;;;1999.90;999.90;;;;;;;;;;5000928;28;20235;-76
2023/07/05 02:25:27;;;;;;;1999.90;999.90;;;;;;;;;;4995124;28;20211;-76
2023/07/05 02:28:12;;;;;;;1999.90;999.90;;;;;;;;;;4998641;28;20276;-73
2023/07/05 02:30:57;;;;;;;1999.90;999.90;;;;;;;;;;4999837;28;20682;-70
2023/07/05 02:33:43;;;;;;;1999.90;999.90;;;;;;;;;;5000463;28;20211;-75
2023/07/05 02:36:28;;;;;;;1999.90;999.90;;;;;;;;;;4991363;28;20406;-73
2023/07/05 02:39:14;;;;;;;1999.90;999.90;;;;;;;;;;4990023;28;20347;-76
2023/07/05 02:41:59;;;;;;;1999.90;999.90;;;;;;;;;;4997809;28;20578;-77
2023/07/05 02:44:47;;;;;;;1999.90;999.90;;;;;;;;;;4994081;28;20803;-74
2023/07/05 02:47:32;;;;;;;1999.90;999.90;;;;;;;;;;4993533;28;20748;-77
2023/07/05 02:50:17;;;;;;;1999.90;999.90;;;;;;;;;;4993857;28;20222;-76
2023/07/05 02:53:02;;;;;;;1999.90;999.90;;;;;;;;;;4995761;28;20696;-76
2023/07/05 02:55:50;;;;;;;1999.90;999.90;;;;;;;;;;4994870;28;20908;-76
2023/07/05 02:58:35;;;;;;;1999.90;999.90;;;;;;;;;;4994850;28;20219;-75
2023/07/05 03:01:20;;;;;;;1999.90;999.90;;;;;;;;;;4989911;28;20219;-76
2023/07/05 03:04:05;;;;;;;1999.90;999.90;;;;;;;;;;5005102;28;20309;-76
2023/07/05 03:06:50;;;;;;;1999.90;999.90;;;;;;;;;;4993048;28;20226;-76
2023/07/05 03:09:34;;;;;;;1999.90;999.90;;;;;;;;;;5000135;28;20694;-77
2023/07/05 03:12:21;;;;;;;1999.90;999.90;;;;;;;;;;4998343;28;20203;-77
2023/07/05 03:15:06;;;;;;;1999.90;999.90;;;;;;;;;;5000132;28;20227;-78
2023/07/05 03:17:51;;;;;;;1999.90;999.90;;;;;;;;;;4993404;28;20259;-77
2023/07/05 03:20:38;;;;;;;1999.90;999.90;;;;;;;;;;4991752;28;20288;-77
2023/07/05 03:23:23;;;;;;;1999.90;999.90;;;;;;;;;;4992580;28;20218;-77
2023/07/05 03:26:08;;;;;;;1999.90;999.90;;;;;;;;;;4986280;28;20306;-77
2023/07/05 03:28:55;;;;;;;1999.90;999.90;;;;;;;;;;4994403;28;20250;-76
2023/07/05 03:31:40;;;;;;;1999.90;999.90;;;;;;;;;;4992810;28;20211;-77
2023/07/05 03:34:25;;;;;;;1999.90;999.90;;;;;;;;;;4998434;28;20266;-77
2023/07/05 03:37:10;;;;;;;1999.90;999.90;;;;;;;;;;4986550;28;20727;-76
2023/07/05 03:39:55;;;;;;;1999.90;999.90;;;;;;;;;;4996121;28;20206;-77
2023/07/05 03:42:40;;;;;;;1999.90;999.90;;;;;;;;;;4992582;28;20723;-76
2023/07/05 03:45:26;;;;;;;1999.90;999.90;;;;;;;;;;4988191;28;20270;-77
2023/07/05 03:48:11;;;;;;;1999.90;999.90;;;;;;;;;;4979617;28;20353;-77
2023/07/05 03:50:56;;;;;;;1999.90;999.90;;;;;;;;;;4998273;28;20440;-77
2023/07/05 03:53:41;;;;;;;1999.90;999.90;;;;;;;;;;4991517;28;20281;-77
2023/07/05 03:56:27;;;;;;;1999.90;999.90;;;;;;;;;;4992342;28;20231;-76
2023/07/05 03:59:12;;;;;;;1999.90;999.90;;;;;;;;;;4999516;28;20203;-77
2023/07/05 04:01:59;;;;;;;1999.90;999.90;;;;;;;;;;4992526;28;20207;-76
2023/07/05 04:04:44;;;;;;;1999.90;999.90;;;;;;;;;;4991855;28;20251;-78
2023/07/05 04:07:29;;;;;;;1999.90;999.90;;;;;;;;;;4995230;28;20226;-77
2023/07/05 04:10:14;;;;;;;1999.90;999.90;;;;;;;;;;4999762;28;20635;-77
2023/07/05 04:12:59;;;;;;;1999.90;999.90;;;;;;;;;;4998067;28;20714;-76
2023/07/05 04:15:44;;;;;;;1999.90;999.90;;;;;;;;;;4996244;28;20254;-76
2023/07/05 04:18:31;;;;;;;1999.90;999.90;;;;;;;;;;4998920;28;20219;-77
2023/07/05 04:21:16;;;;;;;1999.90;999.90;;;;;;;;;;4990359;28;20225;-77
2023/07/05 04:24:01;;;;;;;1999.90;999.90;;;;;;;;;;4999441;28;20647;-76
2023/07/05 04:26:46;;;;;;;1999.90;999.90;;;;;;;;;;4996115;28;20231;-77
2023/07/05 04:29:31;;;;;;;1999.90;999.90;;;;;;;;;;4995320;28;20429;-77
2023/07/05 04:32:16;;;;;;;1999.90;999.90;;;;;;;;;;4983839;28;20334;-77
2023/07/05 04:35:02;;;;;;;1999.90;999.90;;;;;;;;;;4987913;28;20222;-77
2023/07/05 04:37:47;;;;;;;1999.90;999.90;;;;;;;;;;5002491;28;20237;-76
2023/07/05 04:40:32;;;;;;;1999.90;999.90;;;;;;;;;;5002072;28;20218;-77
2023/07/05 04:43:17;;;;;;;1999.90;999.90;;;;;;;;;;4997910;28;20215;-77
2023/07/05 04:46:02;;;;;;;1999.90;999.90;;;;;;;;;;4987203;28;20410;-76
2023/07/05 04:48:47;;;;;;;1999.90;999.90;;;;;;;;;;4995592;28;20750;-76
2023/07/05 04:51:33;;;;;;;1999.90;999.90;;;;;;;;;;4995994;28;20282;-76
2023/07/05 04:54:18;;;;;;;1999.90;999.90;;;;;;;;;;4989778;28;20230;-76
2023/07/05 04:57:04;;;;;;;1999.90;999.90;;;;;;;;;;4996245;28;20599;-73
2023/07/05 04:59:51;;;;;;;1999.90;999.90;;;;;;;;;;4995099;28;20251;-75
2023/07/05 05:02:37;;;;;;;1999.90;999.90;;;;;;;;;;4995589;28;20331;-75
2023/07/05 05:05:22;;;;;;;1999.90;999.90;;;;;;;;;;4997353;28;20707;-74
2023/07/05 05:08:08;;;;;;;1999.90;999.90;;;;;;;;;;4994712;28;20772;-76
2023/07/05 05:10:54;;;;;;;1999.90;999.90;;;;;;;;;;4991986;28;20620;-74
2023/07/05 05:13:39;;;;;;;1999.90;999.90;;;;;;;;;;4993266;28;20727;-77
2023/07/05 05:16:24;;;;;;;1999.90;999.90;;;;;;;;;;5001647;28;20230;-74
2023/07/05 05:19:09;;;;;;;1999.90;999.90;;;;;;;;;;4997023;28;20294;-73
2023/07/05 05:21:54;;;;;;;1999.90;999.90;;;;;;;;;;5001007;28;20289;-72
2023/07/05 05:24:41;;;;;;;1999.90;999.90;;;;;;;;;;4996337;28;20943;-74
2023/07/05 05:27:26;;;;;;;1999.90;999.90;;;;;;;;;;4995250;28;20921;-77
2023/07/05 05:30:11;;;;;;;1999.90;999.90;;;;;;;;;;4998626;28;20200;-76
2023/07/05 05:32:56;;;;;;;1999.90;999.90;;;;;;;;;;4994727;28;20258;-76
2023/07/05 05:35:46;;;;;;;1999.90;999.90;;;;;;;;;;4999976;28;20219;-75
2023/07/05 05:38:31;;;;;;;1999.90;999.90;;;;;;;;;;4994822;28;20604;-75
2023/07/05 05:41:17;;;;;;;1999.90;999.90;;;;;;;;;;4993913;28;20211;-76
2023/07/05 05:44:02;;;;;;;1999.90;999.90;;;;;;;;;;4996261;28;20481;-74
2023/07/05 05:46:47;;;;;;;1999.90;999.90;;;;;;;;;;4996339;28;20601;-76
2023/07/05 05:49:32;;;;;;;1999.90;999.90;;;;;;;;;;4992153;28;20214;-76
2023/07/05 05:52:17;;;;;;;1999.90;999.90;;;;;;;;;;4995979;28;20258;-77
2023/07/05 05:55:03;;;;;;;1999.90;999.90;;;;;;;;;;5000937;28;20203;-76
2023/07/05 05:57:49;;;;;;;1999.90;999.90;;;;;;;;;;4997679;28;20358;-76
2023/07/05 06:00:34;;;;;;;1999.90;999.90;;;;;;;;;;4994542;28;20219;-76
2023/07/05 06:03:20;;;;;;;1999.90;999.90;;;;;;;;;;4993632;28;20354;-74
2023/07/05 06:06:04;;;;;;;1999.90;999.90;;;;;;;;;;5006106;28;20317;-76
2023/07/05 06:08:49;;;;;;;1999.90;999.90;;;;;;;;;;5004135;28;20218;-75
2023/07/05 06:11:34;;;;;;;1999.90;999.90;;;;;;;;;;4998616;28;20331;-77
2023/07/05 06:14:20;;;;;;;1999.90;999.90;;;;;;;;;;4985592;28;20214;-76
2023/07/05 06:17:06;;;;;;;1999.90;999.90;;;;;;;;;;4996779;28;20231;-76
2023/07/05 06:19:51;;;;;;;1999.90;999.90;;;;;;;;;;4993897;28;20886;-75
2023/07/05 06:22:37;;;;;;;1999.90;999.90;;;;;;;;;;4991035;28;20457;-75
2023/07/05 06:25:22;;;;;;;1999.90;999.90;;;;;;;;;;4993763;28;20251;-77
2023/07/05 06:28:07;;;;;;;1999.90;999.90;;;;;;;;;;4994246;28;20707;-77
2023/07/05 06:30:53;;;;;;;1999.90;999.90;;;;;;;;;;4990298;28;20207;-77
2023/07/05 06:33:38;;;;;;;1999.90;999.90;;;;;;;;;;4990333;28;20215;-77
2023/07/05 06:36:23;;;;;;;1999.90;999.90;;;;;;;;;;4989858;28;20246;-77
2023/07/05 06:39:08;;;;;;;1999.90;999.90;;;;;;;;;;4991985;28;20957;-76
2023/07/05 06:41:53;;;;;;;1999.90;999.90;;;;;;;;;;4993445;28;20274;-77
2023/07/05 06:44:38;;;;;;;1999.90;999.90;;;;;;;;;;4995473;28;20235;-76
2023/07/05 06:47:24;;;;;;;1999.90;999.90;;;;;;;;;;4993257;28;20762;-76
2023/07/05 06:50:10;;;;;;;1999.90;999.90;;;;;;;;;;4988880;28;20215;-76
2023/07/05 06:52:55;;;;;;;1999.90;999.90;;;;;;;;;;4992754;28;20588;-76
2023/07/05 06:55:40;;;;;;;1999.90;999.90;;;;;;;;;;4989276;28;20763;-76
2023/07/05 06:58:24;;;;;;;1999.90;999.90;;;;;;;;;;4992165;28;20291;-75
2023/07/05 07:01:09;;;;;;;1999.90;999.90;;;;;;;;;;4995411;28;20207;-75
2023/07/05 07:03:56;;;;;;;1999.90;999.90;;;;;;;;;;4993128;28;20223;-74
2023/07/05 07:06:40;;;;;;;1999.90;999.90;;;;;;;;;;4993038;28;20259;-76
2023/07/05 07:09:26;;;;;;;1999.90;999.90;;;;;;;;;;4995805;28;20722;-76
2023/07/05 07:12:11;;;;;;;1999.90;999.90;;;;;;;;;;4997112;28;20215;-76
2023/07/05 07:14:56;;;;;;;1999.90;999.90;;;;;;;;;;4990539;28;20218;-76
2023/07/05 07:17:41;;;;;;;1999.90;999.90;;;;;;;;;;4989800;28;20508;-75
2023/07/05 07:20:27;;;;;;;1999.90;999.90;;;;;;;;;;4991003;28;20242;-75
2023/07/05 07:23:12;;;;;;;1999.90;999.90;;;;;;;;;;4989030;28;20251;-76
2023/07/05 07:25:59;;;;;;;1999.90;999.90;;;;;;;;;;4990408;28;20211;-75
2023/07/05 07:28:45;;;;;;;1999.90;999.90;;;;;;;;;;4990237;28;20220;-76
2023/07/05 07:31:31;;;;;;;1999.90;999.90;;;;;;;;;;4990138;28;20577;-76
2023/07/05 07:34:17;;;;;;;1999.90;999.90;;;;;;;;;;4990588;28;20526;-75
2023/07/05 07:37:03;;;;;;;1999.90;999.90;;;;;;;;;;4992526;28;20774;-76
2023/07/05 07:39:49;;;;;;;1999.90;999.90;;;;;;;;;;4993685;28;20274;-76
2023/07/05 07:42:34;;;;;;;1999.90;999.90;;;;;;;;;;4989809;28;20616;-75
2023/07/05 07:45:19;;;;;;;1999.90;999.90;;;;;;;;;;4991786;28;20310;-76
2023/07/05 07:48:04;;;;;;;1999.90;999.90;;;;;;;;;;4989830;28;20362;-75
2023/07/05 07:50:49;;;;;;;1999.90;999.90;;;;;;;;;;4986940;28;20212;-75
2023/07/05 07:53:36;;;;;;;1999.90;999.90;;;;;;;;;;4987945;28;20291;-75
2023/07/05 07:56:22;;;;;;;1999.90;999.90;;;;;;;;;;4990942;28;20317;-75
2023/07/05 07:59:07;;;;;;;1999.90;999.90;;;;;;;;;;4990708;28;21410;-75
2023/07/05 08:01:52;;;;;;;1999.90;999.90;;;;;;;;;;4987988;28;20330;-75
2023/07/05 08:04:39;;;;;;;1999.90;999.90;;;;;;;;;;4988706;28;20350;-75
2023/07/05 08:07:24;;;;;;;1999.90;999.90;;;;;;;;;;4988813;28;20624;-75
2023/07/05 08:10:11;;;;;;;1999.90;999.90;;;;;;;;;;4990125;28;20214;-76
2023/07/05 08:12:56;;;;;;;1999.90;999.90;;;;;;;;;;4989067;28;21048;-76
2023/07/05 08:15:41;;;;;;;1999.90;999.90;;;;;;;;;;4990470;28;20219;-76
2023/07/05 08:18:26;;;;;;;1999.90;999.90;;;;;;;;;;4988574;28;20215;-76
2023/07/05 08:21:12;;;;;;;1999.90;999.90;;;;;;;;;;4989084;28;20214;-76
2023/07/05 08:23:57;;;;;;;1999.90;999.90;;;;;;;;;;4989080;28;20270;-77
2023/07/05 08:26:44;;;;;;;1999.90;999.90;;;;;;;;;;4988214;28;20235;-76
2023/07/05 08:29:30;;;;;;;1999.90;999.90;;;;;;;;;;4986544;28;20214;-76
2023/07/05 08:32:15;;;;;;;1999.90;999.90;;;;;;;;;;4983575;28;20286;-76
2023/07/05 08:35:01;;;;;;;1999.90;999.90;;;;;;;;;;4994092;28;20215;-75
2023/07/05 08:37:48;;;;;;;1999.90;999.90;;;;;;;;;;4992106;28;20293;-76
2023/07/05 08:40:38;;;;;;;1999.90;999.90;;;;;;;;;;4995593;28;20337;-74
2023/07/05 08:43:30;;;;;;;1999.90;999.90;;;;;;;;;;4976000;28;20254;-75
2023/07/05 08:46:15;;;;;;;1999.90;999.90;;;;;;;;;;4992631;28;20801;-74
2023/07/05 08:49:01;;;;;;;1999.90;999.90;;;;;;;;;;4994887;28;20218;-75
2023/07/05 08:51:46;;;;;;;1999.90;999.90;;;;;;;;;;4991904;28;20448;-76
2023/07/05 08:54:32;;;;;;;1999.90;999.90;;;;;;;;;;4998034;28;20792;-75
2023/07/05 08:57:20;;;;;;;1999.90;999.90;;;;;;;;;;4987725;28;20234;-76
2023/07/05 09:00:11;;;;;;;1999.90;999.90;;;;;;;;;;4994774;28;20262;-76
2023/07/05 09:02:56;;;;;;;1999.90;999.90;;;;;;;;;;4992148;28;20214;-76
2023/07/05 09:05:44;;;;;;;1999.90;999.90;;;;;;;;;;4990273;28;20223;-75
2023/07/05 09:08:33;;;;;;;1999.90;999.90;;;;;;;;;;4990458;28;20433;-76
2023/07/05 09:11:20;;;;;;;1999.90;999.90;;;;;;;;;;4989881;28;20328;-76
2023/07/05 09:14:13;;;;;;;1999.90;999.90;;;;;;;;;;4999282;28;20210;-75
2023/07/05 09:17:02;;;;;;;1999.90;999.90;;;;;;;;;;4995322;28;20231;-76
2023/07/05 09:19:52;;;;;;;1999.90;999.90;;;;;;;;;;4992908;28;20239;-75
2023/07/05 09:22:38;;;;;;;1999.90;999.90;;;;;;;;;;4993057;28;20695;-77
2023/07/05 09:25:24;;;;;;;1999.90;999.90;;;;;;;;;;5002642;28;20234;-77
2023/07/05 09:28:13;;;;;;;1999.90;999.90;;;;;;;;;;4995113;28;20421;-73
2023/07/05 09:30:59;;;;;;;1999.90;999.90;;;;;;;;;;4999435;28;20326;-77
2023/07/05 09:33:46;;;;;;;1999.90;999.90;;;;;;;;;;5001991;28;20612;-75
2023/07/05 09:36:32;;;;;;;1999.90;999.90;;;;;;;;;;4994685;28;20227;-76
2023/07/05 09:39:22;;;;;;;1999.90;999.90;;;;;;;;;;4995064;28;20215;-72
2023/07/05 09:42:12;;;;;;;1999.90;999.90;;;;;;;;;;5005524;28;20211;-76
2023/07/05 09:44:57;;;;;;;1999.90;999.90;;;;;;;;;;5000083;28;20227;-77
2023/07/05 09:47:42;;;;;;;1999.90;999.90;;;;;;;;;;4994809;28;20238;-76
2023/07/05 09:50:29;;;;;;;1999.90;999.90;;;;;;;;;;4992388;28;20215;-76
2023/07/05 09:53:21;;;;;;;1999.90;999.90;;;;;;;;;;4996501;28;20227;-74
2023/07/05 09:56:08;;;;;;;1999.90;999.90;;;;;;;;;;4992497;28;20223;-75
2023/07/05 09:59:05;;;;;;;1999.90;999.90;;;;;;;;;;4993524;28;20210;-76
2023/07/05 10:01:53;;;;;;;1999.90;999.90;;;;;;;;;;4992181;28;20635;-75
2023/07/05 10:04:43;;;;;;;1999.90;999.90;;;;;;;;;;4991295;28;20485;-75
2023/07/05 10:07:32;;;;;;;1999.90;999.90;;;;;;;;;;4993204;28;20289;-75
2023/07/05 10:10:18;;;;;;;1999.90;999.90;;;;;;;;;;4994828;28;20237;-76
2023/07/05 10:13:04;;;;;;;1999.90;999.90;;;;;;;;;;4994259;28;20572;-76
2023/07/05 10:15:50;;;;;;;1999.90;999.90;;;;;;;;;;4994036;28;20323;-75
2023/07/05 10:18:36;;;;;;;1999.90;999.90;;;;;;;;;;4992789;28;20208;-75
2023/07/05 10:21:21;;;;;;;1999.90;999.90;;;;;;;;;;5001593;28;20219;-76
2023/07/05 10:24:10;;;;;;;1999.90;999.90;;;;;;;;;;4994182;28;20587;-77
2023/07/05 10:27:02;;;;;;;1999.90;999.90;;;;;;;;;;4992684;28;20226;-76
2023/07/05 10:29:47;;;;;;;1999.90;999.90;;;;;;;;;;4990993;28;20219;-74
2023/07/05 10:32:33;;;;;;;1999.90;999.90;;;;;;;;;;4993451;28;20286;-74
2023/07/05 10:35:21;;;;;;;1999.90;999.90;;;;;;;;;;4995484;28;20200;-75
2023/07/05 10:38:18;;;;;;;1999.90;999.90;;;;;;;;;;4991734;28;20747;-78
2023/07/05 10:41:15;;;;;;;1999.90;999.90;;;;;;;;;;4993333;28;20206;-75
2023/07/05 10:44:02;;;;;;;1999.90;999.90;;;;;;;;;;4994701;28;20211;-76
2023/07/05 10:46:48;;;;;;;1999.90;999.90;;;;;;;;;;4990153;28;20239;-77
2023/07/05 10:49:33;;;;;;;1999.90;999.90;;;;;;;;;;4985506;28;20203;-76
2023/07/05 10:52:19;;;;;;;1999.90;999.90;;;;;;;;;;5003745;28;20222;-76
2023/07/05 10:55:07;;;;;;;1999.90;999.90;;;;;;;;;;4995936;28;20299;-76
2023/07/05 10:57:56;;;;;;;1999.90;999.90;;;;;;;;;;4998704;28;20740;-74
2023/07/05 11:00:43;;;;;;;1999.90;999.90;;;;;;;;;;4996440;28;20422;-76
2023/07/05 11:03:35;;;;;;;1999.90;999.90;;;;;;;;;;4992801;28;20415;-74
2023/07/05 11:06:21;;;;;;;1999.90;999.90;;;;;;;;;;4997235;28;20278;-75
2023/07/05 11:09:06;;;;;;;1999.90;999.90;;;;;;;;;;5006324;28;20214;-73
2023/07/05 11:11:53;;;;;;;1999.90;999.90;;;;;;;;;;4998241;28;20566;-75
2023/07/05 11:14:39;;;;;;;1999.90;999.90;;;;;;;;;;4994216;28;20211;-75
2023/07/05 11:17:28;;;;;;;1999.90;999.90;;;;;;;;;;4992700;28;20226;-75
2023/07/05 11:20:32;;;;;;;1999.90;999.90;;;;;;;;;;4998390;28;20496;-75
2023/07/05 11:23:38;;;;;;;1999.90;999.90;;;;;;;;;;4994947;28;20217;-74
2023/07/05 11:26:30;;;;;;;1999.90;999.90;;;;;;;;;;4980711;28;20242;-75
2023/07/05 11:29:47;;;;;;;1999.90;999.90;;;;;;;;;;4991364;28;20739;-75
2023/07/05 11:45:51;;;;;;;1999.90;999.90;;;;;;;;;;5108025;27;20552;-75
2023/07/05 11:48:41;;;;;;;1999.90;999.90;;;;;;;;;;5089019;28;20202;-77
2023/07/05 11:51:30;;;;;;;1999.90;999.90;;;;;;;;;;5088964;28;20199;-76
2023/07/05 11:54:17;;;;;;;1999.90;999.90;;;;;;;;;;5087726;28;20316;-76
2023/07/05 11:57:03;;;;;;;1999.90;999.90;;;;;;;;;;5083977;28;20529;-76
2023/07/05 11:59:56;;;;;;;1999.90;999.90;;;;;;;;;;5086845;28;20304;-76
2023/07/05 12:02:49;;;;;;;1999.90;999.90;;;;;;;;;;5086076;28;20330;-75
2023/07/05 12:05:36;;;;;;;1999.90;999.90;;;;;;;;;;5070261;28;20215;-75
2023/07/05 12:08:24;;;;;;;1999.90;999.90;;;;;;;;;;5086834;28;20622;-75
2023/07/05 12:11:09;;;;;;;1999.90;999.90;;;;;;;;;;5086526;28;20718;-76
2023/07/05 12:13:54;;;;;;;1999.90;999.90;;;;;;;;;;5088577;28;20243;-76
2023/07/05 12:16:39;;;;;;;1999.90;999.90;;;;;;;;;;5084504;28;20265;-76
2023/07/05 12:19:27;;;;;;;1999.90;999.90;;;;;;;;;;5087243;28;20297;-74
2023/07/05 12:22:16;;;;;;;1999.90;999.90;;;;;;;;;;5086425;28;20202;-75
2023/07/05 12:25:02;;;;;;;1999.90;999.90;;;;;;;;;;5087300;28;20752;-77
2023/07/05 12:27:47;;;;;;;1999.90;999.90;;;;;;;;;;5087408;28;20246;-74
2023/07/05 12:30:38;;;;;;;1999.90;999.90;;;;;;;;;;5086710;28;20246;-76
2023/07/05 12:33:24;;;;;;;1999.90;999.90;;;;;;;;;;5087211;28;20329;-76
2023/07/05 12:36:12;;;;;;;1999.90;999.90;;;;;;;;;;5084612;28;20225;-75
2023/07/05 12:39:06;;;;;;;1999.90;999.90;;;;;;;;;;5088443;28;20222;-76
2023/07/05 12:41:58;;;;;;;1999.90;999.90;;;;;;;;;;5087302;28;20200;-75
2023/07/05 12:44:43;;;;;;;1999.90;999.90;;;;;;;;;;5068049;28;20227;-75
2023/07/05 12:47:28;;;;;;;1999.90;999.90;;;;;;;;;;5073638;28;20232;-76
2023/07/05 12:50:19;;;;;;;1999.90;999.90;;;;;;;;;;5073207;28;20294;-75
2023/07/05 12:53:07;;;;;;;1999.90;999.90;;;;;;;;;;5074401;28;20203;-75
2023/07/05 12:55:54;;;;;;;1999.90;999.90;;;;;;;;;;5073269;28;20195;-74
2023/07/05 12:58:47;;;;;;;1999.90;999.90;;;;;;;;;;5067780;28;20274;-76
2023/07/05 13:01:34;;;;;;;1999.90;999.90;;;;;;;;;;5074233;28;20200;-77
2023/07/05 13:04:20;;;;;;;1999.90;999.90;;;;;;;;;;5073259;28;20332;-76
2023/07/05 13:07:05;;;;;;;1999.90;999.90;;;;;;;;;;5072725;28;20231;-74
2023/07/05 13:09:53;;;;;;;1999.90;999.90;;;;;;;;;;5066407;28;20447;-77
2023/07/05 13:12:45;;;;;;;1999.90;999.90;;;;;;;;;;5066970;28;20228;-77
2023/07/05 13:15:34;;;;;;;1999.90;999.90;;;;;;;;;;5072245;28;20225;-74
2023/07/05 13:18:29;;;;;;;1999.90;999.90;;;;;;;;;;5074194;28;20193;-75
2023/07/05 13:21:16;;;;;;;1999.90;999.90;;;;;;;;;;5071558;28;20598;-76
2023/07/05 13:24:01;;;;;;;1999.90;999.90;;;;;;;;;;5072957;28;20581;-76
2023/07/05 13:26:47;;;;;;;1999.90;999.90;;;;;;;;;;5071425;28;20232;-75
2023/07/05 13:29:35;;;;;;;1999.90;999.90;;;;;;;;;;5060940;28;20220;-77
2023/07/05 13:32:25;;;;;;;1999.90;999.90;;;;;;;;;;5069518;28;20283;-77
2023/07/05 13:35:10;;;;;;;1999.90;999.90;;;;;;;;;;5065993;28;20221;-76
2023/07/05 13:37:55;;;;;;;1999.90;999.90;;;;;;;;;;5069769;28;20310;-77
2023/07/05 13:40:49;;;;;;;1999.90;999.90;;;;;;;;;;5071118;28;20208;-75
2023/07/05 13:43:36;;;;;;;1999.90;999.90;;;;;;;;;;5070310;28;20287;-77
2023/07/05 13:46:21;;;;;;;1999.90;999.90;;;;;;;;;;5069298;28;20387;-77
2023/07/05 13:49:09;;;;;;;1999.90;999.90;;;;;;;;;;5069966;28;20225;-77
2023/07/05 13:51:55;;;;;;;1999.90;999.90;;;;;;;;;;5069062;28;20585;-76
2023/07/05 13:54:40;;;;;;;1999.90;999.90;;;;;;;;;;5070015;28;20238;-74
2023/07/05 13:57:25;;;;;;;1999.90;999.90;;;;;;;;;;5069585;28;20351;-76
2023/07/05 14:00:13;;;;;;;1999.90;999.90;;;;;;;;;;5067594;28;20297;-76
2023/07/05 14:02:59;;;;;;;1999.90;999.90;;;;;;;;;;5068875;28;20425;-76
2023/07/05 14:05:44;;;;;;;1999.90;999.90;;;;;;;;;;5064798;28;20554;-75
2023/07/05 14:08:29;;;;;;;1999.90;999.90;;;;;;;;;;5065690;28;20216;-76
2023/07/05 14:11:18;;;;;;;1999.90;999.90;;;;;;;;;;5070637;28;20333;-76
2023/07/05 14:14:04;;;;;;;1999.90;999.90;;;;;;;;;;5066371;28;20239;-75
2023/07/05 14:16:50;;;;;;;1999.90;999.90;;;;;;;;;;5068147;28;20234;-76
2023/07/05 14:19:35;;;;;;;1999.90;999.90;;;;;;;;;;5069636;28;20241;-75
2023/07/05 14:22:22;;;;;;;1999.90;999.90;;;;;;;;;;5068002;28;20606;-76
2023/07/05 14:25:13;;;;;;;1999.90;999.90;;;;;;;;;;5069961;28;20203;-75
2023/07/05 14:27:58;;;;;;;1999.90;999.90;;;;;;;;;;5067669;28;20345;-73
2023/07/05 14:30:43;;;;;;;1999.90;999.90;;;;;;;;;;5069833;28;20262;-74
2023/07/05 14:33:30;;;;;;;1999.90;999.90;;;;;;;;;;5069723;28;20692;-75
2023/07/05 14:36:16;;;;;;;1999.90;999.90;;;;;;;;;;5069178;28;20225;-75
2023/07/05 14:39:02;;;;;;;1999.90;999.90;;;;;;;;;;5070217;28;20212;-76
2023/07/05 14:41:47;;;;;;;1999.90;999.90;;;;;;;;;;5068783;28;20212;-77
2023/07/05 14:44:32;;;;;;;1999.90;999.90;;;;;;;;;;5068925;28;20224;-76
2023/07/05 14:47:16;;;;;;;1999.90;999.90;;;;;;;;;;5067398;28;20607;-76
2023/07/05 14:50:03;;;;;;;1999.90;999.90;;;;;;;;;;5070093;28;20326;-76
2023/07/05 14:52:49;;;;;;;1999.90;999.90;;;;;;;;;;5066166;28;20201;-76
2023/07/05 14:55:34;;;;;;;1999.90;999.90;;;;;;;;;;5063740;28;20307;-76
2023/07/05 14:58:20;;;;;;;1999.90;999.90;;;;;;;;;;5066707;28;20688;-76
2023/07/05 15:01:07;;;;;;;1999.90;999.90;;;;;;;;;;5068144;28;20397;-75
2023/07/05 15:03:52;;;;;;;1999.90;999.90;;;;;;;;;;5067330;28;20213;-76
2023/07/05 15:06:39;;;;;;;1999.90;999.90;;;;;;;;;;5065450;28;20239;-73
2023/07/05 15:09:24;;;;;;;1999.90;999.90;;;;;;;;;;5066502;28;20348;-74
2023/07/05 15:12:10;;;;;;;1999.90;999.90;;;;;;;;;;5064658;28;20204;-72
2023/07/05 15:14:56;;;;;;;1999.90;999.90;;;;;;;;;;5065196;28;20730;-73
2023/07/05 15:17:41;;;;;;;1999.90;999.90;;;;;;;;;;5068082;28;20295;-74
2023/07/05 15:20:27;;;;;;;1999.90;999.90;;;;;;;;;;5065525;28;20249;-73
2023/07/05 15:23:13;;;;;;;1999.90;999.90;;;;;;;;;;5064665;28;20584;-76
2023/07/05 15:25:59;;;;;;;1999.90;999.90;;;;;;;;;;5067556;28;20211;-74
2023/07/05 15:28:44;;;;;;;1999.90;999.90;;;;;;;;;;5065971;28;20350;-73
2023/07/05 15:31:29;;;;;;;1999.90;999.90;;;;;;;;;;5066420;28;20226;-74
2023/07/05 15:34:14;;;;;;;1999.90;999.90;;;;;;;;;;5065034;28;20220;-74
2023/07/05 15:37:00;;;;;;;1999.90;999.90;;;;;;;;;;5064733;28;20361;-74
2023/07/05 15:39:47;;;;;;;1999.90;999.90;;;;;;;;;;5063928;28;20207;-75
2023/07/05 15:42:32;;;;;;;1999.90;999.90;;;;;;;;;;5064875;28;20215;-75
2023/07/05 15:45:18;;;;;;;1999.90;999.90;;;;;;;;;;5064586;28;20228;-75
2023/07/05 15:48:03;;;;;;;1999.90;999.90;;;;;;;;;;5071324;28;20228;-74
2023/07/05 15:50:50;;;;;;;1999.90;999.90;;;;;;;;;;5068310;28;20212;-73
2023/07/05 15:53:35;;;;;;;1999.90;999.90;;;;;;;;;;5068857;28;20233;-73
2023/07/05 15:56:22;;;;;;;1999.90;999.90;;;;;;;;;;5064767;28;20431;-73
2023/07/05 15:59:12;;;;;;;1999.90;999.90;;;;;;;;;;5068442;28;20209;-74
2023/07/05 16:01:59;;;;;;;1999.90;999.90;;;;;;;;;;5065165;28;20572;-73
2023/07/05 16:04:44;;;;;;;1999.90;999.90;;;;;;;;;;5063317;28;20200;-75
2023/07/05 16:07:30;;;;;;;1999.90;999.90;;;;;;;;;;5070980;28;20246;-74
2023/07/05 16:10:16;;;;;;;1999.90;999.90;;;;;;;;;;5071433;28;20223;-71
2023/07/05 16:13:03;;;;;;;1999.90;999.90;;;;;;;;;;5071373;28;20234;-73
2023/07/05 16:15:54;;;;;;;1999.90;999.90;;;;;;;;;;5063189;28;20222;-72
2023/07/05 16:18:41;;;;;;;1999.90;999.90;;;;;;;;;;5071080;28;20330;-72
2023/07/05 16:21:26;;;;;;;1999.90;999.90;;;;;;;;;;5073066;28;20215;-71
2023/07/05 16:24:11;;;;;;;1999.90;999.90;;;;;;;;;;5074740;28;20211;-75
2023/07/05 16:26:56;;;;;;;1999.90;999.90;;;;;;;;;;5068151;28;20720;-75
2023/07/05 16:29:43;;;;;;;1999.90;999.90;;;;;;;;;;5074626;28;20214;-74
2023/07/05 16:32:28;;;;;;;1999.90;999.90;;;;;;;;;;5073910;28;20430;-74
2023/07/05 16:35:13;;;;;;;1999.90;999.90;;;;;;;;;;5074476;28;20318;-72
2023/07/05 16:37:58;;;;;;;1999.90;999.90;;;;;;;;;;5068359;28;20739;-74
2023/07/05 16:40:43;;;;;;;1999.90;999.90;;;;;;;;;;5066086;28;20289;-73
2023/07/05 16:43:28;;;;;;;1999.90;999.90;;;;;;;;;;5074337;28;20235;-74
2023/07/05 16:46:15;;;;;;;1999.90;999.90;;;;;;;;;;5074376;28;20303;-74
2023/07/05 16:48:59;;;;;;;1999.90;999.90;;;;;;;;;;5068395;28;20211;-72
2023/07/05 16:51:46;;;;;;;1999.90;999.90;;;;;;;;;;5073862;28;20386;-72
2023/07/05 16:54:31;;;;;;;1999.90;999.90;;;;;;;;;;5074212;28;20219;-72
2023/07/05 16:57:16;;;;;;;1999.90;999.90;;;;;;;;;;5073992;28;20231;-73
2023/07/05 17:00:01;;;;;;;1999.90;999.90;;;;;;;;;;5069476;28;20784;-72
2023/07/05 17:02:47;;;;;;;1999.90;999.90;;;;;;;;;;5067328;28;20220;-74
2023/07/05 17:05:33;;;;;;;1999.90;999.90;;;;;;;;;;5068615;28;20221;-73
2023/07/05 17:08:18;;;;;;;1999.90;999.90;;;;;;;;;;5064392;28;20216;-73
2023/07/05 17:11:04;;;;;;;1999.90;999.90;;;;;;;;;;5063857;28;20274;-74
2023/07/05 17:13:50;;;;;;;1999.90;999.90;;;;;;;;;;5056177;28;20220;-73
2023/07/05 17:16:35;;;;;;;1999.90;999.90;;;;;;;;;;5060784;28;20248;-73
2023/07/05 17:19:22;;;;;;;1999.90;999.90;;;;;;;;;;5069853;28;20212;-73
2023/07/05 17:22:07;;;;;;;1999.90;999.90;;;;;;;;;;5064509;28;20231;-73
2023/07/05 17:24:52;;;;;;;1999.90;999.90;;;;;;;;;;5059603;28;20215;-74
2023/07/05 17:27:36;;;;;;;1999.90;999.90;;;;;;;;;;5057752;28;20231;-72